Time;durP1;ratioP1;P1;durP2;ratioP2;P2;SDS_P1;SDS_P2;PMS_P1;PMS_P2;Temp;Humidity;BMP_temperature;BMP_pressure;BME280_temperature;BME280_humidity;BME280_pressure;Samples;Min_cycle;Max_cycle;Signal;HPM_P1;HPM_P2
2021/06/20 00:00:20;;;;;;;9.25;4.60;;;;;;;29.47;41.58;99621.31;5082738;28;20089;-74
2021/06/20 00:02:46;;;;;;;11.93;5.07;;;;;;;29.53;41.40;99635.63;5085397;27;20035;-73
2021/06/20 00:05:16;;;;;;;11.48;5.10;;;;;;;29.54;41.19;99632.63;5084946;28;20036;-73
2021/06/20 00:07:45;;;;;;;13.32;4.80;;;;;;;29.57;41.56;99632.00;5084079;28;20359;-73
2021/06/20 00:10:14;;;;;;;10.52;5.00;;;;;;;29.56;41.70;99626.88;5084483;28;20052;-73
2021/06/20 00:12:40;;;;;;;10.60;5.20;;;;;;;29.55;41.38;99630.69;5084473;28;20400;-74
2021/06/20 00:15:10;;;;;;;10.35;4.40;;;;;;;29.54;41.75;99634.53;5069506;28;20435;-74
2021/06/20 00:17:36;;;;;;;11.82;5.10;;;;;;;29.54;41.87;99627.16;5083707;28;20067;-73
2021/06/20 00:20:03;;;;;;;8.27;4.57;;;;;;;29.56;42.11;99613.25;5085963;27;20130;-73
2021/06/20 00:22:29;;;;;;;10.88;4.72;;;;;;;29.53;42.34;99622.00;5084202;28;20032;-74
2021/06/20 00:24:54;;;;;;;7.30;4.82;;;;;;;29.49;42.93;99627.25;5085046;28;20081;-73
2021/06/20 00:27:21;;;;;;;13.70;5.40;;;;;;;29.50;42.80;99634.31;5068681;28;20535;-74
2021/06/20 00:29:47;;;;;;;8.93;4.70;;;;;;;29.38;43.51;99629.34;5088744;28;20112;-75
2021/06/20 00:32:13;;;;;;;11.35;5.10;;;;;;;29.41;43.28;99638.84;5083851;28;20112;-74
2021/06/20 00:34:39;;;;;;;8.73;4.90;;;;;;;29.42;43.43;99633.09;5087044;28;20032;-74
2021/06/20 00:37:06;;;;;;;7.40;5.10;;;;;;;29.38;43.80;99650.34;5087460;28;20072;-73
2021/06/20 00:39:33;;;;;;;8.68;4.88;;;;;;;29.40;43.75;99656.28;5083205;28;20394;-73
2021/06/20 00:42:00;;;;;;;10.10;4.85;;;;;;;29.41;43.90;99650.56;5083696;28;20381;-75
2021/06/20 00:44:27;;;;;;;9.15;5.03;;;;;;;29.25;44.55;99662.81;5084500;28;20033;-74
2021/06/20 00:46:53;;;;;;;9.65;4.88;;;;;;;29.24;44.61;99665.81;5072474;28;20116;-73
2021/06/20 00:49:19;;;;;;;10.10;5.20;;;;;;;29.20;44.71;99671.06;5082690;27;20038;-73
2021/06/20 00:51:45;;;;;;;8.20;5.50;;;;;;;29.14;45.09;99673.03;5082541;27;20032;-74
2021/06/20 00:54:12;;;;;;;10.95;5.60;;;;;;;29.11;45.70;99679.09;5084940;27;20170;-73
2021/06/20 00:56:39;;;;;;;9.15;5.40;;;;;;;29.02;46.09;99686.28;5085080;27;20304;-73
2021/06/20 00:59:05;;;;;;;9.07;5.20;;;;;;;28.91;46.30;99696.50;5083767;28;20107;-73
2021/06/20 01:01:32;;;;;;;7.72;4.82;;;;;;;28.85;46.86;99694.16;5084891;28;20028;-74
2021/06/20 01:03:58;;;;;;;9.70;5.50;;;;;;;28.80;46.80;99695.81;5085288;27;20024;-73
2021/06/20 01:06:25;;;;;;;12.82;5.97;;;;;;;28.72;47.75;99696.50;5069321;27;20459;-75
2021/06/20 01:08:50;;;;;;;10.35;5.25;;;;;;;28.76;47.12;99711.13;5083756;27;20373;-73
2021/06/20 01:11:16;;;;;;;11.07;5.72;;;;;;;28.71;47.32;99707.66;5084993;28;20039;-74
2021/06/20 01:13:44;;;;;;;10.85;5.85;;;;;;;28.66;47.74;99716.69;5085619;28;20130;-74
2021/06/20 01:16:09;;;;;;;12.02;5.45;;;;;;;28.61;48.14;99729.56;5085208;27;20392;-73
2021/06/20 01:18:35;;;;;;;9.75;5.38;;;;;;;28.57;48.86;99735.56;5083824;28;20048;-73
2021/06/20 01:21:03;;;;;;;12.05;5.78;;;;;;;28.41;49.76;99739.53;5083539;28;20480;-74
2021/06/20 01:23:29;;;;;;;12.23;5.88;;;;;;;28.46;49.04;99749.56;5084937;27;20055;-73
2021/06/20 01:25:56;;;;;;;12.93;5.50;;;;;;;28.38;49.82;99749.06;5084738;28;20085;-74
2021/06/20 01:28:27;;;;;;;9.80;5.72;;;;;;;28.29;49.96;99753.56;5086404;27;20056;-73
2021/06/20 01:30:59;;;;;;;10.65;5.95;;;;;;;28.23;50.15;99762.84;5087849;28;20231;-74
2021/06/20 01:33:26;;;;;;;11.95;5.13;;;;;;;28.14;50.40;99765.38;5085084;28;20032;-74
2021/06/20 01:35:57;;;;;;;8.95;5.40;;;;;;;28.10;50.72;99760.81;5086096;28;20039;-74
2021/06/20 01:38:23;;;;;;;12.90;5.45;;;;;;;28.04;51.14;99768.22;5086648;28;20048;-73
2021/06/20 01:40:49;;;;;;;16.48;5.80;;;;;;;28.02;51.41;99777.75;5089759;28;20680;-73
2021/06/20 01:43:15;;;;;;;12.90;5.97;;;;;;;27.86;52.17;99791.44;5088474;27;20039;-73
2021/06/20 01:45:42;;;;;;;11.13;5.63;;;;;;;27.83;52.31;99802.09;5088924;27;20032;-74
2021/06/20 01:48:08;;;;;;;10.82;4.90;;;;;;;27.73;52.83;99802.94;5085365;28;20279;-74
2021/06/20 01:50:35;;;;;;;8.82;4.45;;;;;;;27.71;51.64;99800.50;5088955;27;20101;-73
2021/06/20 01:53:06;;;;;;;13.65;6.00;;;;;;;27.64;53.28;99801.94;5089243;28;20039;-74
2021/06/20 01:55:32;;;;;;;13.10;5.90;;;;;;;27.62;52.78;99812.25;5089347;28;20028;-74
2021/06/20 01:57:58;;;;;;;13.75;5.85;;;;;;;27.58;52.66;99816.63;5089018;28;20496;-74
2021/06/20 02:00:25;;;;;;;10.98;5.55;;;;;;;27.47;54.04;99824.84;5088850;28;20063;-74
2021/06/20 02:02:50;;;;;;;10.75;4.72;;;;;;;27.38;55.23;99828.44;5089226;28;20059;-74
2021/06/20 02:05:15;;;;;;;15.35;6.00;;;;;;;27.32;53.77;99838.53;5089363;28;20483;-74
2021/06/20 02:07:42;;;;;;;11.52;5.43;;;;;;;27.33;53.76;99835.50;5089294;28;20032;-74
2021/06/20 02:10:11;;;;;;;15.32;5.43;;;;;;;27.30;53.62;99844.22;5088756;27;20031;-73
2021/06/20 02:12:37;;;;;;;15.30;5.50;;;;;;;27.30;53.42;99848.84;5089233;28;20378;-73
2021/06/20 02:15:06;;;;;;;18.75;5.22;;;;;;;27.26;53.59;99853.22;5088995;28;20131;-73
2021/06/20 02:17:34;;;;;;;10.02;4.93;;;;;;;27.14;53.77;99853.50;5088639;28;20476;-74
2021/06/20 02:20:09;;;;;;;18.58;5.70;;;;;;;27.18;53.21;99859.19;5088929;28;20293;-74
2021/06/20 02:22:36;;;;;;;11.55;4.75;;;;;;;27.14;53.26;99869.78;5076670;28;20032;-74
2021/06/20 02:25:03;;;;;;;10.90;4.68;;;;;;;27.13;53.07;99849.19;5089939;28;20473;-74
2021/06/20 02:27:31;;;;;;;13.80;4.85;;;;;;;27.07;53.12;99845.66;5090485;28;20032;-73
2021/06/20 02:29:58;;;;;;;12.75;4.30;;;;;;;26.96;53.21;99848.69;5089707;28;20032;-74
2021/06/20 02:32:25;;;;;;;13.18;4.30;;;;;;;27.02;52.44;99842.97;5071494;27;20542;-73
2021/06/20 02:34:52;;;;;;;13.85;4.03;;;;;;;26.92;52.67;99844.91;5090312;28;20443;-74
2021/06/20 02:37:19;;;;;;;10.35;4.03;;;;;;;26.98;52.25;99852.78;5089559;27;20404;-74
2021/06/20 02:39:49;;;;;;;9.80;3.97;;;;;;;26.94;52.47;99853.59;5087785;28;20126;-74
2021/06/20 02:42:15;;;;;;;12.23;4.15;;;;;;;26.85;53.09;99853.34;5088146;28;20040;-74
2021/06/20 02:44:42;;;;;;;15.77;4.63;;;;;;;26.86;52.75;99858.50;5090080;28;20115;-74
2021/06/20 02:47:08;;;;;;;12.13;4.70;;;;;;;26.80;53.28;99861.50;5089652;27;20036;-75
2021/06/20 02:49:37;;;;;;;14.00;4.60;;;;;;;26.74;53.27;99870.72;5088797;28;20040;-74
2021/06/20 02:52:05;;;;;;;9.48;3.97;;;;;;;26.74;53.10;99878.88;5088994;27;20028;-74
2021/06/20 02:54:31;;;;;;;11.25;4.55;;;;;;;26.65;54.22;99881.34;5088224;28;20039;-75
2021/06/20 02:56:58;;;;;;;13.20;4.55;;;;;;;26.59;54.40;99879.72;5088284;28;20036;-73
2021/06/20 02:59:25;;;;;;;11.85;4.30;;;;;;;26.57;53.79;99873.75;5087854;28;20437;-74
2021/06/20 03:01:51;;;;;;;8.75;4.40;;;;;;;26.56;54.10;99889.22;5088221;28;20043;-74
2021/06/20 03:04:17;;;;;;;11.55;4.50;;;;;;;26.49;54.49;99897.59;5087888;27;20039;-74
2021/06/20 03:06:42;;;;;;;14.48;5.05;;;;;;;26.47;54.41;99890.81;5089473;27;20040;-74
2021/06/20 03:09:08;;;;;;;17.73;5.15;;;;;;;26.47;54.92;99897.03;5089428;28;20060;-73
2021/06/20 03:11:41;;;;;;;11.02;4.88;;;;;;;26.40;55.28;99893.81;5089185;27;20488;-74
2021/06/20 03:14:06;;;;;;;10.68;4.80;;;;;;;26.33;55.69;99892.44;5089191;27;20124;-73
2021/06/20 03:16:33;;;;;;;9.70;4.80;;;;;;;26.19;55.48;99897.59;5089439;28;20078;-74
2021/06/20 03:18:58;;;;;;;11.95;4.65;;;;;;;25.99;57.11;99915.47;5089417;27;20039;-73
2021/06/20 03:21:24;;;;;;;8.02;3.92;;;;;;;25.94;56.89;99914.66;5089637;28;20039;-74
2021/06/20 03:23:50;;;;;;;8.38;3.40;;;;;;;25.91;54.57;99909.75;5089035;27;20035;-74
2021/06/20 03:26:17;;;;;;;9.15;3.30;;;;;;;25.89;54.06;99914.66;5088795;27;20097;-73
2021/06/20 03:28:44;;;;;;;9.77;2.88;;;;;;;25.87;53.77;99925.75;5088750;27;20068;-73
2021/06/20 03:31:10;;;;;;;13.63;3.50;;;;;;;25.90;53.40;99933.34;5089115;28;20395;-73
2021/06/20 03:33:36;;;;;;;6.53;2.92;;;;;;;25.80;53.97;99939.50;5088627;28;20032;-74
2021/06/20 03:36:03;;;;;;;6.35;2.53;;;;;;;25.82;53.35;99952.78;5089224;27;20054;-73
2021/06/20 03:38:30;;;;;;;7.03;3.00;;;;;;;25.74;54.44;99943.31;5087892;27;20032;-74
2021/06/20 03:40:56;;;;;;;7.63;2.80;;;;;;;25.70;54.36;99952.22;5074170;28;20042;-73
2021/06/20 03:43:23;;;;;;;6.45;2.75;;;;;;;25.62;53.99;99956.25;5088700;28;20024;-74
2021/06/20 03:45:49;;;;;;;8.82;3.03;;;;;;;25.69;53.45;99969.53;5088033;27;20043;-74
2021/06/20 03:48:15;;;;;;;8.38;2.83;;;;;;;25.64;53.43;99965.72;5088398;27;20055;-73
2021/06/20 03:50:41;;;;;;;9.00;2.83;;;;;;;25.59;53.15;99959.47;5087083;28;20070;-73
2021/06/20 03:53:07;;;;;;;6.57;2.47;;;;;;;25.59;53.30;99960.28;5088798;28;20020;-73
2021/06/20 03:55:34;;;;;;;6.82;2.60;;;;;;;25.60;53.23;99966.53;5088757;28;20144;-73
2021/06/20 03:58:01;;;;;;;6.63;2.72;;;;;;;25.55;53.78;99958.38;5088442;28;20094;-73
2021/06/20 04:00:28;;;;;;;6.28;2.40;;;;;;;25.54;52.99;99960.28;5086842;28;20616;-73
2021/06/20 04:02:53;;;;;;;6.95;2.38;;;;;;;25.52;54.12;99956.22;5087051;28;20088;-73
2021/06/20 04:05:18;;;;;;;5.37;2.27;;;;;;;25.48;53.32;99969.47;5088775;28;20040;-73
2021/06/20 04:07:44;;;;;;;5.72;2.47;;;;;;;25.53;53.01;99977.63;5087930;27;20821;-73
2021/06/20 04:10:10;;;;;;;8.77;2.60;;;;;;;25.47;53.02;99967.81;5086628;28;20119;-73
2021/06/20 04:12:35;;;;;;;6.55;2.10;;;;;;;25.52;52.70;99977.88;5086935;28;20064;-73
2021/06/20 04:15:00;;;;;;;5.57;2.25;;;;;;;25.55;52.95;99985.44;5088892;27;20035;-73
2021/06/20 04:17:29;;;;;;;4.15;2.00;;;;;;;25.57;52.76;99989.53;5088644;27;20036;-73
2021/06/20 04:19:54;;;;;;;6.25;1.85;;;;;;;25.57;51.23;99986.81;5088031;27;20035;-73
2021/06/20 04:22:20;;;;;;;6.45;1.77;;;;;;;25.51;51.84;99968.94;5088221;27;20029;-73
2021/06/20 04:24:45;;;;;;;3.72;1.77;;;;;;;25.49;52.09;99973.78;5086950;28;20047;-73
2021/06/20 04:27:10;;;;;;;6.63;2.17;;;;;;;25.51;50.61;99979.75;5088239;28;20373;-74
2021/06/20 04:29:36;;;;;;;3.60;1.50;;;;;;;25.46;51.00;99984.31;5088266;27;20404;-74
2021/06/20 04:32:01;;;;;;;4.75;1.75;;;;;;;25.36;51.14;99977.81;5087753;27;20032;-74
2021/06/20 04:34:26;;;;;;;4.22;1.52;;;;;;;25.33;51.89;99963.97;5087905;28;20044;-73
2021/06/20 04:36:52;;;;;;;3.97;1.30;;;;;;;25.25;52.42;99975.31;5086464;28;20067;-74
2021/06/20 04:39:17;;;;;;;3.17;1.45;;;;;;;25.26;52.40;99957.97;5087580;27;20115;-73
2021/06/20 04:41:43;;;;;;;2.80;1.52;;;;;;;25.24;52.50;99963.66;5087689;28;20039;-74
2021/06/20 04:47:14;;;;;;;5.22;1.60;;;;;;;25.19;51.54;99972.59;5051539;28;20044;-73
2021/06/20 04:49:41;;;;;;;6.15;1.80;;;;;;;25.16;51.80;99977.66;5080100;28;20063;-74
2021/06/20 04:52:08;;;;;;;4.72;1.40;;;;;;;25.17;51.50;99984.69;5087627;28;20028;-73
2021/06/20 04:54:35;;;;;;;4.18;1.60;;;;;;;25.31;51.32;99993.19;5087953;27;20040;-75
2021/06/20 04:57:02;;;;;;;6.63;1.60;;;;;;;25.41;50.56;99982.44;5087964;27;20089;-73
2021/06/20 04:59:27;;;;;;;4.68;1.42;;;;;;;25.48;51.43;99979.47;5087918;28;20032;-74
2021/06/20 05:01:53;;;;;;;3.15;1.40;;;;;;;25.60;50.97;99985.50;5090594;28;20044;-74
2021/06/20 05:04:18;;;;;;;4.32;1.70;;;;;;;25.77;50.96;99988.81;5091619;27;20519;-74
2021/06/20 05:06:43;;;;;;;3.78;1.58;;;;;;;25.96;50.29;99991.88;5091935;27;20048;-73
2021/06/20 05:09:09;;;;;;;5.25;1.65;;;;;;;26.08;50.32;99998.91;5091937;28;20404;-73
2021/06/20 05:11:34;;;;;;;5.28;1.77;;;;;;;26.16;49.91;100001.13;5091755;28;20047;-74
2021/06/20 05:13:59;;;;;;;3.90;1.67;;;;;;;26.21;49.96;100003.84;5092483;28;20043;-73
2021/06/20 05:16:25;;;;;;;4.43;1.58;;;;;;;26.36;49.67;100006.59;5091391;27;20494;-74
2021/06/20 05:18:50;;;;;;;4.15;1.60;;;;;;;26.33;50.50;99998.97;5091099;28;20032;-74
2021/06/20 05:21:16;;;;;;;3.58;1.40;;;;;;;26.36;50.35;100003.88;5091831;27;20151;-74
2021/06/20 05:23:41;;;;;;;4.80;1.55;;;;;;;26.48;49.20;100007.16;5092042;28;20066;-74
2021/06/20 05:26:06;;;;;;;4.55;1.40;;;;;;;26.31;50.97;100001.13;5091132;27;20040;-74
2021/06/20 05:28:32;;;;;;;3.83;1.40;;;;;;;26.31;51.22;100005.75;5090152;28;20036;-74
2021/06/20 05:30:57;;;;;;;3.63;1.50;;;;;;;26.29;49.85;100014.16;5091473;27;20036;-74
2021/06/20 05:33:22;;;;;;;5.43;1.67;;;;;;;26.15;50.93;100030.13;5091624;28;20032;-73
2021/06/20 05:35:48;;;;;;;4.20;1.70;;;;;;;26.10;50.62;100038.25;5091304;27;20059;-73
2021/06/20 05:38:15;;;;;;;3.47;1.70;;;;;;;25.83;50.93;100038.38;5091190;27;20350;-73
2021/06/20 05:40:40;;;;;;;3.15;1.60;;;;;;;25.88;50.64;100041.13;5091285;28;20032;-73
2021/06/20 05:43:06;;;;;;;6.38;1.90;;;;;;;26.02;50.50;100050.41;5091848;28;20043;-73
2021/06/20 05:45:32;;;;;;;5.35;1.50;;;;;;;26.06;50.47;100048.78;5091418;28;20028;-73
2021/06/20 05:47:57;;;;;;;3.78;1.40;;;;;;;26.11;50.68;100047.19;5091609;27;20028;-73
2021/06/20 05:50:23;;;;;;;3.63;1.60;;;;;;;26.10;51.23;100054.50;5090403;28;20043;-74
2021/06/20 05:52:48;;;;;;;5.18;1.67;;;;;;;26.16;50.96;100045.28;5091223;28;20676;-73
2021/06/20 05:55:14;;;;;;;5.88;1.60;;;;;;;26.09;51.18;100043.91;5090949;28;20450;-73
2021/06/20 05:57:39;;;;;;;3.28;1.30;;;;;;;26.03;51.02;100029.56;5091250;28;20082;-73
2021/06/20 06:00:07;;;;;;;4.30;1.60;;;;;;;26.11;51.26;100030.94;5091370;27;20056;-74
2021/06/20 06:02:33;;;;;;;3.15;1.33;;;;;;;26.26;51.12;100026.34;5091126;28;20035;-74
2021/06/20 06:04:58;;;;;;;3.08;1.65;;;;;;;26.46;50.84;100025.56;5091074;27;20421;-74
2021/06/20 06:07:23;;;;;;;2.45;1.42;;;;;;;26.66;50.02;100023.97;5090755;27;20043;-74
2021/06/20 06:09:49;;;;;;;6.03;1.77;;;;;;;26.94;48.57;100027.25;5090512;28;20060;-74
2021/06/20 06:12:14;;;;;;;3.47;1.60;;;;;;;27.08;49.06;100029.13;5089906;28;20043;-73
2021/06/20 06:14:39;;;;;;;3.03;1.30;;;;;;;27.15;49.18;100033.44;5090808;28;20649;-74
2021/06/20 06:17:05;;;;;;;3.53;1.40;;;;;;;27.08;49.30;100031.03;5091377;28;20043;-74
2021/06/20 06:19:30;;;;;;;3.88;1.42;;;;;;;27.21;49.51;100030.47;5090412;28;20028;-74
2021/06/20 06:21:56;;;;;;;4.10;1.50;;;;;;;27.16;48.94;100033.19;5090279;27;20465;-73
2021/06/20 06:24:21;;;;;;;5.32;1.70;;;;;;;27.08;49.36;100031.84;5089547;27;20524;-73
2021/06/20 06:26:46;;;;;;;5.53;1.60;;;;;;;27.11;48.77;100046.75;5090805;27;20028;-74
2021/06/20 06:29:12;;;;;;;4.72;1.70;;;;;;;27.25;48.52;100047.03;5077845;28;20036;-74
2021/06/20 06:31:40;;;;;;;3.03;1.55;;;;;;;27.41;48.81;100045.09;5089050;28;20028;-74
2021/06/20 06:34:06;;;;;;;4.85;1.67;;;;;;;27.43;48.30;100030.16;5089897;27;20028;-74
2021/06/20 06:36:31;;;;;;;5.88;1.83;;;;;;;26.86;47.86;100032.13;5090327;27;20112;-74
2021/06/20 06:38:57;;;;;;;3.97;1.40;;;;;;;27.13;48.57;100032.91;5089556;28;20055;-74
2021/06/20 06:41:22;;;;;;;7.13;1.60;;;;;;;27.31;48.12;100030.44;5089426;28;20411;-74
2021/06/20 06:43:47;;;;;;;3.38;1.50;;;;;;;27.58;47.76;100023.03;5089846;28;20389;-73
2021/06/20 06:46:13;;;;;;;3.03;1.38;;;;;;;27.67;47.51;100027.66;5089379;28;20036;-74
2021/06/20 06:48:38;;;;;;;4.63;1.80;;;;;;;27.76;48.00;100027.88;5089852;27;20035;-74
2021/06/20 06:51:04;;;;;;;3.85;1.50;;;;;;;28.03;47.69;100037.53;5088055;28;20055;-74
2021/06/20 06:53:29;;;;;;;4.80;1.63;;;;;;;28.17;47.23;100036.69;5089642;28;20028;-74
2021/06/20 06:55:55;;;;;;;2.83;1.30;;;;;;;28.26;46.47;100044.22;5086313;28;20028;-74
2021/06/20 06:58:20;;;;;;;3.53;1.50;;;;;;;28.15;47.23;100047.00;5084811;27;20067;-74
2021/06/20 07:00:47;;;;;;;2.83;1.33;;;;;;;28.07;47.29;100041.34;5090219;27;20453;-74
2021/06/20 07:03:13;;;;;;;5.28;1.48;;;;;;;27.98;46.82;100048.44;5089459;27;20107;-74
2021/06/20 07:05:38;;;;;;;3.90;1.40;;;;;;;27.75;46.98;100058.84;5089731;27;20143;-74
2021/06/20 07:08:04;;;;;;;5.22;1.58;;;;;;;27.88;47.35;100058.25;5088338;27;20043;-74
2021/06/20 07:10:29;;;;;;;4.22;1.55;;;;;;;27.91;46.24;100060.44;5089003;28;20032;-74
2021/06/20 07:12:55;;;;;;;5.03;1.58;;;;;;;28.08;46.84;100060.09;5091264;27;20403;-74
2021/06/20 07:15:20;;;;;;;3.97;1.50;;;;;;;28.14;46.03;100058.16;5089243;28;20350;-74
2021/06/20 07:17:46;;;;;;;4.72;1.67;;;;;;;28.03;45.79;100057.41;5102083;27;20035;-74
2021/06/20 07:20:15;;;;;;;3.58;1.25;;;;;;;28.21;46.86;100066.00;5092641;27;20055;-74
2021/06/20 07:22:41;;;;;;;5.03;1.48;;;;;;;28.32;45.82;100059.44;5088967;28;20373;-74
2021/06/20 07:25:07;;;;;;;4.18;1.60;;;;;;;28.29;44.54;100046.38;5089080;28;20043;-74
2021/06/20 07:27:37;;;;;;;3.05;1.45;;;;;;;28.14;45.70;100044.56;5089177;28;20044;-73
2021/06/20 07:30:07;;;;;;;4.72;1.60;;;;;;;28.26;45.37;100044.22;5089012;27;20047;-74
2021/06/20 07:32:33;;;;;;;5.82;1.73;;;;;;;28.38;44.88;100036.53;5087823;28;20531;-73
2021/06/20 07:34:58;;;;;;;3.50;1.52;;;;;;;28.23;46.99;100040.16;5089238;28;20040;-74
2021/06/20 07:37:24;;;;;;;3.75;1.35;;;;;;;28.28;45.97;100033.88;5088917;27;20047;-73
2021/06/20 07:39:49;;;;;;;4.60;1.77;;;;;;;28.50;44.61;100034.28;5088205;27;20404;-73
2021/06/20 07:42:14;;;;;;;3.50;1.30;;;;;;;28.63;45.91;100038.28;5089013;27;20028;-73
2021/06/20 07:44:40;;;;;;;3.33;1.60;;;;;;;28.61;45.27;100043.19;5089204;28;20279;-73
2021/06/20 07:47:05;;;;;;;4.50;1.63;;;;;;;28.71;46.35;100040.41;5088538;27;20043;-74
2021/06/20 07:49:30;;;;;;;3.42;1.40;;;;;;;28.77;45.37;100050.16;5089030;28;20173;-74
2021/06/20 07:51:55;;;;;;;3.97;1.42;;;;;;;28.87;45.06;100057.41;5088281;27;20059;-74
2021/06/20 07:54:21;;;;;;;3.53;1.27;;;;;;;28.92;44.06;100057.38;5088518;28;20412;-73
2021/06/20 07:56:46;;;;;;;3.35;1.30;;;;;;;28.57;45.04;100067.44;5088896;28;20036;-74
2021/06/20 07:59:11;;;;;;;3.92;1.63;;;;;;;28.49;44.60;100061.78;5087522;27;20063;-73
2021/06/20 08:01:39;;;;;;;5.13;1.70;;;;;;;28.77;44.58;100080.09;5088603;28;20114;-74
2021/06/20 08:04:04;;;;;;;3.75;1.40;;;;;;;28.91;44.35;100088.41;5088005;27;20131;-74
2021/06/20 08:06:29;;;;;;;3.85;1.55;;;;;;;29.39;42.95;100077.66;5088687;27;20124;-75
2021/06/20 08:08:55;;;;;;;3.35;1.50;;;;;;;29.84;43.09;100059.19;5087925;28;20545;-74
2021/06/20 08:11:24;;;;;;;4.55;1.58;;;;;;;30.53;40.85;100047.06;5088231;27;20040;-74
2021/06/20 08:13:50;;;;;;;4.03;1.38;;;;;;;30.80;40.71;100033.53;5088572;27;20064;-73
2021/06/20 08:16:17;;;;;;;4.72;1.73;;;;;;;30.91;38.41;100045.09;5087718;27;20048;-74
2021/06/20 08:18:43;;;;;;;2.40;1.58;;;;;;;30.66;39.18;100038.94;5088101;27;20335;-74
2021/06/20 08:21:08;;;;;;;5.43;1.60;;;;;;;30.35;39.75;100043.28;5087986;27;20521;-73
2021/06/20 08:23:33;;;;;;;4.38;1.50;;;;;;;29.53;41.06;100036.09;5088533;28;20089;-74
2021/06/20 08:25:59;;;;;;;3.13;1.42;;;;;;;29.47;43.66;100034.53;5088217;27;20089;-73
2021/06/20 08:28:24;;;;;;;2.87;1.20;;;;;;;30.33;41.65;100027.19;5087697;27;20083;-74
2021/06/20 08:30:50;;;;;;;3.22;1.25;;;;;;;30.98;40.30;100020.16;5088075;27;20289;-74
2021/06/20 08:33:15;;;;;;;2.90;1.40;;;;;;;31.27;39.00;100019.88;5088179;28;20036;-74
2021/06/20 08:35:41;;;;;;;2.78;1.60;;;;;;;30.96;38.04;100016.91;5088070;28;20508;-73
2021/06/20 08:38:06;;;;;;;2.03;1.42;;;;;;;30.72;39.31;100019.75;5087569;27;20489;-74
2021/06/20 08:40:32;;;;;;;4.18;1.40;;;;;;;30.68;39.24;100017.63;5088277;28;20044;-74
2021/06/20 08:42:58;;;;;;;3.90;1.40;;;;;;;30.60;39.53;100012.03;5087637;28;20085;-74
2021/06/20 08:45:24;;;;;;;2.55;1.35;;;;;;;30.41;41.13;100025.69;5088123;27;20264;-73
2021/06/20 08:47:51;;;;;;;2.70;1.20;;;;;;;30.46;39.70;100029.19;5087470;28;20047;-75
2021/06/20 08:50:16;;;;;;;3.70;1.55;;;;;;;30.56;39.92;100030.09;5087356;28;20247;-73
2021/06/20 08:52:41;;;;;;;2.78;1.27;;;;;;;30.16;39.77;100024.94;5088211;27;20036;-74
2021/06/20 08:55:09;;;;;;;3.05;1.60;;;;;;;29.68;40.35;100024.25;5087849;28;20028;-74
2021/06/20 08:57:37;;;;;;;2.58;1.50;;;;;;;29.31;41.29;100009.38;5087846;27;20032;-74
2021/06/20 09:00:08;;;;;;;4.85;1.48;;;;;;;29.01;42.04;100014.03;5086910;27;20036;-73
2021/06/20 09:02:33;;;;;;;5.60;1.73;;;;;;;28.87;43.12;100005.72;5087629;28;20033;-73
2021/06/20 09:05:02;;;;;;;3.50;1.50;;;;;;;28.82;42.33;100019.38;5086202;28;20044;-73
2021/06/20 09:07:42;;;;;;;4.15;1.58;;;;;;;28.69;42.21;100030.91;5087284;28;20453;-74
2021/06/20 09:10:16;;;;;;;4.32;1.58;;;;;;;28.49;42.55;100016.34;5071248;28;20032;-73
2021/06/20 09:12:55;;;;;;;3.90;1.63;;;;;;;28.51;42.63;100018.81;5088078;28;20469;-73
2021/06/20 09:15:25;;;;;;;4.68;1.50;;;;;;;28.34;42.77;100024.56;5087802;27;20025;-73
2021/06/20 09:17:52;;;;;;;3.00;1.53;;;;;;;28.05;44.27;100025.31;5087457;27;20558;-73
2021/06/20 09:20:18;;;;;;;2.88;1.58;;;;;;;28.17;43.93;100025.78;5087073;27;20060;-73
2021/06/20 09:22:54;;;;;;;5.85;1.70;;;;;;;28.02;43.63;100016.91;5088556;28;20115;-74
2021/06/20 09:25:25;;;;;;;3.08;1.55;;;;;;;27.88;44.45;100022.94;5086547;28;20401;-74
2021/06/20 09:27:56;;;;;;;5.10;1.50;;;;;;;27.94;44.10;100023.75;5088019;28;20043;-74
2021/06/20 09:30:22;;;;;;;4.40;2.10;;;;;;;27.66;46.09;100030.63;5086956;27;20451;-73
2021/06/20 09:32:55;;;;;;;4.03;1.83;;;;;;;27.67;45.74;100027.66;5087514;27;20028;-73
2021/06/20 09:35:20;;;;;;;4.75;1.50;;;;;;;27.78;45.07;100035.75;5087327;27;20032;-73
2021/06/20 09:37:53;;;;;;;4.45;1.70;;;;;;;27.69;45.30;100035.50;5099332;27;20119;-73
2021/06/20 09:40:19;;;;;;;3.72;1.85;;;;;;;27.52;45.63;100039.34;5087174;27;20033;-73
2021/06/20 09:42:44;;;;;;;4.32;1.50;;;;;;;27.70;45.26;100026.28;5091908;27;20381;-74
2021/06/20 09:45:10;;;;;;;3.85;1.67;;;;;;;27.61;44.93;100009.72;5087891;27;20036;-73
2021/06/20 09:47:42;;;;;;;3.42;1.60;;;;;;;27.51;45.08;99999.72;5086837;28;20032;-73
2021/06/20 09:50:09;;;;;;;6.32;1.88;;;;;;;27.51;45.36;100001.63;5089849;27;20036;-74
2021/06/20 09:52:36;;;;;;;3.90;1.52;;;;;;;27.35;45.86;99994.63;5091440;27;20024;-74
2021/06/20 09:55:08;;;;;;;3.42;1.30;;;;;;;27.63;44.96;99988.53;5090737;27;20040;-75
2021/06/20 09:57:41;;;;;;;3.00;1.50;;;;;;;27.55;45.13;99972.81;5090609;28;20408;-74
2021/06/20 10:00:07;;;;;;;3.22;1.52;;;;;;;27.48;45.38;99966.84;5089982;28;20043;-75
2021/06/20 10:02:35;;;;;;;2.78;1.40;;;;;;;27.62;45.58;99962.44;5090216;27;20035;-75
2021/06/20 10:05:01;;;;;;;4.35;1.60;;;;;;;27.63;46.96;99964.09;5090800;28;20035;-74
2021/06/20 10:07:29;;;;;;;4.03;1.63;;;;;;;27.88;44.83;99965.88;5089850;27;20032;-75
2021/06/20 10:10:01;;;;;;;3.60;1.70;;;;;;;27.81;46.35;99964.53;5086175;28;20047;-73
2021/06/20 10:12:27;;;;;;;3.33;1.52;;;;;;;27.90;45.80;99963.69;5088888;28;20488;-74
2021/06/20 10:14:55;;;;;;;5.15;1.90;;;;;;;27.63;45.87;99972.25;5090919;28;20173;-74
2021/06/20 10:17:30;;;;;;;4.72;1.80;;;;;;;27.52;46.36;99992.38;5090298;28;20047;-73
2021/06/20 10:19:58;;;;;;;3.50;2.00;;;;;;;27.22;47.78;99990.56;5087613;28;20293;-73
2021/06/20 10:22:23;;;;;;;5.22;1.50;;;;;;;27.20;47.43;99979.19;5088659;28;20204;-73
2021/06/20 10:24:56;;;;;;;4.20;1.83;;;;;;;27.14;47.54;99964.78;5090144;27;20178;-73
2021/06/20 10:27:30;;;;;;;4.80;1.50;;;;;;;27.09;47.89;99979.16;5070217;28;20039;-73
2021/06/20 10:29:58;;;;;;;4.57;1.70;;;;;;;27.02;48.84;99980.56;5088921;27;20094;-73
2021/06/20 10:32:25;;;;;;;4.07;2.00;;;;;;;26.96;47.75;99959.94;5089289;27;20455;-73
2021/06/20 10:34:57;;;;;;;3.47;1.80;;;;;;;27.06;47.75;99939.03;5088923;28;20051;-73
2021/06/20 10:37:23;;;;;;;4.70;1.95;;;;;;;27.03;47.69;99952.31;5089985;27;20040;-74
2021/06/20 10:39:55;;;;;;;3.53;1.50;;;;;;;26.99;48.08;99962.09;5088842;28;20345;-73
2021/06/20 10:42:33;;;;;;;5.45;1.90;;;;;;;27.04;48.21;99962.09;5089609;27;20115;-73
2021/06/20 10:44:59;;;;;;;4.20;1.60;;;;;;;26.76;49.27;99944.50;5089340;27;20028;-73
2021/06/20 10:47:39;;;;;;;6.03;1.90;;;;;;;26.49;51.13;99940.97;5090351;28;20267;-73
2021/06/20 10:50:15;;;;;;;5.27;1.70;;;;;;;26.56;49.15;99939.94;5089555;28;20032;-74
2021/06/20 10:52:54;;;;;;;4.13;2.20;;;;;;;26.88;48.85;99937.69;5088888;27;20481;-74
2021/06/20 10:55:19;;;;;;;3.63;2.05;;;;;;;26.99;47.96;99934.97;5088458;28;20036;-74
2021/06/20 10:57:49;;;;;;;4.10;1.90;;;;;;;26.98;48.21;99926.03;5089888;28;20032;-74
2021/06/20 11:00:30;;;;;;;3.67;1.73;;;;;;;27.36;48.04;99939.22;5088138;27;20036;-74
2021/06/20 11:03:28;;;;;;;6.50;2.15;;;;;;;27.69;47.13;99943.94;5089805;28;20043;-74
2021/06/20 11:05:59;;;;;;;4.38;1.70;;;;;;;27.90;46.48;99941.16;5079726;27;20082;-74
2021/06/20 11:08:28;;;;;;;4.30;1.80;;;;;;;28.19;46.34;99945.84;5075147;28;20032;-74
2021/06/20 11:11:09;;;;;;;2.85;1.55;;;;;;;28.49;46.94;99942.13;5097550;27;20036;-75
2021/06/20 11:13:35;;;;;;;2.85;1.65;;;;;;;28.53;43.67;99937.72;5095196;28;20105;-74
2021/06/20 11:16:13;;;;;;;2.95;1.40;;;;;;;28.50;45.53;99930.94;5088836;27;20020;-74
2021/06/20 11:18:42;;;;;;;2.63;1.20;;;;;;;28.76;44.99;99930.69;5081519;28;20082;-74
2021/06/20 11:21:07;;;;;;;5.43;1.45;;;;;;;29.00;43.28;99920.63;5085305;27;20028;-74
2021/06/20 11:23:33;;;;;;;3.95;1.63;;;;;;;29.12;43.14;99908.56;5087562;28;20399;-74
2021/06/20 11:26:00;;;;;;;2.92;1.60;;;;;;;29.16;42.33;99910.41;5089141;28;20595;-74
2021/06/20 11:28:26;;;;;;;3.17;1.60;;;;;;;28.84;42.98;99911.03;5087561;27;20431;-75
2021/06/20 11:31:02;;;;;;;3.85;1.35;;;;;;;28.91;43.39;99902.50;5088612;27;20035;-74